Time;durP1;ratioP1;P1;durP2;ratioP2;P2;SDS_P1;SDS_P2;PMS_P1;PMS_P2;Temp;Humidity;BMP_temperature;BMP_pressure;BME280_temperature;BME280_humidity;BME280_pressure;Samples;Min_cycle;Max_cycle;Signal;HPM_P1;HPM_P2
2022/10/17 00:01:10;;;;;;;;;;;;;;;3.74;100.00;101201.32;1804177;79;21009;-68
2022/10/17 00:03:39;;;;;;;15.78;10.10;;;;;;;3.68;100.00;101197.55;1809621;79;20094;-67
2022/10/17 00:06:12;;;;;;;17.98;10.63;;;;;;;3.56;100.00;101195.53;1815933;79;21017;-67
2022/10/17 00:08:39;;;;;;;16.42;10.78;;;;;;;3.53;100.00;101197.27;1790217;79;21112;-67
2022/10/17 00:11:15;;;;;;;16.93;10.80;;;;;;;3.55;100.00;101193.85;1808716;79;21009;-68
2022/10/17 00:13:41;;;;;;;14.75;10.40;;;;;;;3.56;100.00;101200.41;1803087;79;21080;-68
2022/10/17 00:16:09;;;;;;;19.10;11.75;;;;;;;3.53;100.00;101194.06;1785655;80;21535;-68
2022/10/17 00:18:36;;;;;;;18.23;11.35;;;;;;;3.47;100.00;101198.88;1805181;79;21446;-68
2022/10/17 00:21:02;;;;;;;17.98;11.18;;;;;;;3.40;100.00;101193.92;1791451;79;21580;-68
2022/10/17 00:23:29;;;;;;;19.15;11.05;;;;;;;3.37;100.00;101187.55;1809389;79;21560;-67
2022/10/17 00:25:59;;;;;;;18.62;11.08;;;;;;;3.39;100.00;101193.59;1798772;79;20990;-67
2022/10/17 00:28:27;;;;;;;20.10;10.82;;;;;;;3.40;100.00;101181.27;1813545;78;21982;-68
2022/10/17 00:30:57;;;;;;;16.12;10.90;;;;;;;3.42;100.00;101183.79;1802519;79;20994;-67
2022/10/17 00:33:25;;;;;;;16.73;10.45;;;;;;;3.42;100.00;101187.83;1810773;79;21033;-67
2022/10/17 00:36:12;;;;;;;16.80;10.85;;;;;;;3.38;100.00;101193.27;1807798;79;21034;-68
2022/10/17 00:38:41;;;;;;;16.57;10.72;;;;;;;3.32;100.00;101189.48;1807938;79;21084;-68
2022/10/17 00:41:09;;;;;;;21.33;11.00;;;;;;;3.32;100.00;101198.91;1809969;78;21009;-67
2022/10/17 00:43:59;;;;;;;19.40;11.30;;;;;;;3.36;100.00;101191.29;1790423;79;21054;-68
2022/10/17 00:46:35;;;;;;;16.97;10.72;;;;;;;3.37;100.00;101190.24;1787706;79;21100;-68
2022/10/17 00:49:09;;;;;;;18.90;11.05;;;;;;;3.34;100.00;101186.08;1787363;79;21069;-68
2022/10/17 00:51:41;;;;;;;22.55;13.25;;;;;;;3.30;100.00;101191.52;1778682;79;21010;-68
2022/10/17 00:54:08;;;;;;;27.90;15.95;;;;;;;3.24;100.00;101185.55;1777332;79;21105;-68
2022/10/17 00:56:36;;;;;;;23.70;15.23;;;;;;;3.22;100.00;101189.47;1774441;79;21543;-68
2022/10/17 00:59:04;;;;;;;24.30;15.40;;;;;;;3.23;100.00;101185.22;1794339;79;21037;-68
2022/10/17 01:01:30;;;;;;;22.75;14.20;;;;;;;3.24;100.00;101180.67;1780429;79;21006;-68
2022/10/17 01:03:58;;;;;;;20.68;13.75;;;;;;;3.24;100.00;101180.17;1775127;79;21014;-68
2022/10/17 01:06:24;;;;;;;21.90;12.63;;;;;;;3.23;100.00;101191.95;1779222;79;21434;-68
2022/10/17 01:08:50;;;;;;;22.62;13.43;;;;;;;3.18;100.00;101179.59;1805259;79;21069;-68
2022/10/17 01:11:25;;;;;;;21.48;13.20;;;;;;;3.14;100.00;101185.53;1786511;79;21017;-68
2022/10/17 01:14:06;;;;;;;19.23;12.30;;;;;;;3.12;100.00;101188.39;1786110;79;21050;-68
2022/10/17 01:16:42;;;;;;;19.87;11.88;;;;;;;3.13;100.00;101182.50;1798371;79;21093;-68
2022/10/17 01:19:56;;;;;;;20.92;11.88;;;;;;;3.12;100.00;101178.97;1793193;79;21555;-68
2022/10/17 01:22:37;;;;;;;20.25;11.28;;;;;;;3.08;100.00;101182.25;1780570;79;21057;-70
2022/10/17 01:25:31;;;;;;;16.57;11.45;;;;;;;2.96;100.00;101169.28;1786033;79;21058;-70
2022/10/17 01:28:32;;;;;;;22.20;11.08;;;;;;;2.95;100.00;101169.45;1745533;81;21070;-68
2022/10/17 01:31:04;;;;;;;18.70;11.43;;;;;;;2.97;100.00;101172.80;1781811;79;21041;-69
2022/10/17 01:33:43;;;;;;;18.07;11.57;;;;;;;2.98;100.00;101166.38;1775828;79;21077;-69
2022/10/17 01:36:33;;;;;;;20.05;11.05;;;;;;;2.96;100.00;101169.78;1799292;79;21003;-69
2022/10/17 01:39:17;;;;;;;17.92;10.90;;;;;;;2.90;100.00;101157.09;1796723;79;21073;-69
2022/10/17 01:42:07;;;;;;;19.90;11.60;;;;;;;2.84;100.00;101163.20;1779845;79;21120;-69
2022/10/17 01:44:40;;;;;;;19.55;12.07;;;;;;;2.81;100.00;101169.80;1792215;79;21049;-69
2022/10/17 01:47:12;;;;;;;18.45;10.93;;;;;;;2.84;100.00;101172.61;1784170;79;21041;-69
2022/10/17 01:49:40;;;;;;;18.05;11.05;;;;;;;2.87;100.00;101183.02;1787592;79;21109;-69
2022/10/17 01:52:11;;;;;;;17.52;11.25;;;;;;;2.86;100.00;101175.97;1805015;77;21041;-69
2022/10/17 01:54:51;;;;;;;18.70;11.28;;;;;;;2.81;100.00;101172.48;1770610;80;21983;-69
2022/10/17 01:57:33;;;;;;;19.20;11.55;;;;;;;2.75;100.00;101170.55;1779747;80;21113;-69
2022/10/17 01:59:59;;;;;;;20.10;12.47;;;;;;;2.72;100.00;101170.92;1751793;80;21537;-68
2022/10/17 02:02:26;;;;;;;17.85;10.90;;;;;;;2.71;100.00;101162.52;1771266;80;21458;-69
2022/10/17 02:04:52;;;;;;;17.10;10.93;;;;;;;2.70;100.00;101164.88;1766791;80;21069;-69
2022/10/17 02:07:19;;;;;;;17.25;10.48;;;;;;;2.70;100.00;101166.73;1758844;80;21085;-69
2022/10/17 02:09:47;;;;;;;17.32;9.88;;;;;;;2.68;100.00;101166.09;1766765;80;21106;-69
2022/10/17 02:12:41;;;;;;;17.25;11.60;;;;;;;2.63;100.00;101171.18;1781009;80;21098;-69
2022/10/17 02:15:35;;;;;;;20.05;11.18;;;;;;;2.57;100.00;101170.59;1758127;80;20975;-69
2022/10/17 02:18:27;;;;;;;15.75;10.10;;;;;;;2.54;100.00;101173.66;1757880;80;21082;-69
2022/10/17 02:21:02;;;;;;;15.60;10.70;;;;;;;2.57;100.00;101174.11;1754180;80;21584;-69
2022/10/17 02:23:47;;;;;;;15.78;10.30;;;;;;;2.59;100.00;101175.29;1797098;79;21101;-69
2022/10/17 02:26:22;;;;;;;17.67;10.82;;;;;;;2.59;100.00;101175.29;1762363;80;21468;-69
2022/10/17 02:29:00;;;;;;;15.72;10.43;;;;;;;2.52;100.00;101167.10;1760004;80;21063;-69
2022/10/17 02:31:50;;;;;;;16.25;10.40;;;;;;;2.45;100.00;101158.95;1777810;80;21034;-69
2022/10/17 02:34:31;;;;;;;17.67;10.60;;;;;;;2.42;100.00;101163.35;1782114;79;21038;-68
2022/10/17 02:36:59;;;;;;;17.77;9.78;;;;;;;2.44;100.00;101157.27;1762602;79;21098;-68
2022/10/17 02:39:27;;;;;;;17.73;10.20;;;;;;;2.44;100.00;101154.58;1769263;80;21054;-68
2022/10/17 02:41:57;;;;;;;17.80;10.98;;;;;;;2.43;100.00;101161.00;1799208;78;21047;-68
2022/10/17 02:44:24;;;;;;;20.05;10.43;;;;;;;2.39;100.00;101155.66;1780965;80;21082;-68
2022/10/17 02:46:55;;;;;;;16.85;10.65;;;;;;;2.39;100.00;101156.17;1769898;79;21098;-68
2022/10/17 02:49:27;;;;;;;16.93;10.63;;;;;;;2.43;100.00;101158.81;1753279;80;21530;-68
2022/10/17 02:52:01;;;;;;;13.70;9.50;;;;;;;2.49;100.00;101162.94;1768755;79;21104;-68
2022/10/17 02:54:39;;;;;;;14.15;10.05;;;;;;;2.57;100.00;101159.84;1768940;80;22259;-68
2022/10/17 02:57:34;;;;;;;18.12;9.40;;;;;;;2.62;100.00;101160.97;1766157;80;21074;-68
2022/10/17 03:00:04;;;;;;;17.10;9.98;;;;;;;2.65;100.00;101169.16;1769608;80;21094;-68
2022/10/17 03:02:44;;;;;;;17.12;11.43;;;;;;;2.61;100.00;101178.61;1753142;80;21121;-68
2022/10/17 03:05:13;;;;;;;18.07;10.88;;;;;;;2.61;100.00;101188.02;1782975;80;21019;-68
2022/10/17 03:07:39;;;;;;;16.85;9.98;;;;;;;2.65;100.00;101197.39;1789951;80;21042;-68
2022/10/17 03:10:06;;;;;;;17.75;10.93;;;;;;;2.71;100.00;101192.61;1793617;80;21007;-68
2022/10/17 03:12:34;;;;;;;18.98;10.32;;;;;;;2.75;100.00;101200.13;1789749;80;21583;-68
2022/10/17 03:15:00;;;;;;;18.07;10.65;;;;;;;2.72;100.00;101197.81;1792943;80;20971;-68
2022/10/17 03:17:28;;;;;;;18.62;11.63;;;;;;;2.71;100.00;101201.52;1790272;80;22219;-68
2022/10/17 03:19:54;;;;;;;20.40;12.98;;;;;;;2.69;100.00;101206.77;1791575;80;21062;-68
2022/10/17 03:22:21;;;;;;;19.85;11.97;;;;;;;2.65;100.00;101216.21;1758676;80;21053;-68
2022/10/17 03:24:47;;;;;;;17.98;11.20;;;;;;;2.66;100.00;101217.89;1783967;80;21018;-68
2022/10/17 03:27:14;;;;;;;;;;;;;;;2.71;100.00;101222.19;1794396;80;21073;-68
2022/10/17 03:29:40;;;;;;;15.45;10.13;;;;;;;2.73;100.00;101212.10;1773887;80;20114;-68
2022/10/17 03:32:07;;;;;;;;;;;;;;;2.68;100.00;101206.42;1784836;80;20994;-68
2022/10/17 03:34:34;;;;;;;17.05;10.30;;;;;;;2.65;100.00;101207.64;1767306;80;20981;-68
2022/10/17 03:37:00;;;;;;;;;;;;;;;2.52;100.00;101219.52;1779670;80;21049;-68
2022/10/17 03:39:27;;;;;;;15.85;10.90;;;;;;;2.47;100.00;101217.41;1750565;80;20111;-68
2022/10/17 03:41:54;;;;;;;16.07;10.60;;;;;;;2.37;100.00;101231.59;1769546;80;21046;-69
2022/10/17 03:44:21;;;;;;;16.80;10.98;;;;;;;2.34;100.00;101238.67;1787399;80;21385;-68
2022/10/17 03:46:48;;;;;;;19.02;10.75;;;;;;;2.36;100.00;101244.72;1788585;80;21545;-68
2022/10/17 03:49:15;;;;;;;14.65;9.60;;;;;;;2.41;100.00;101239.61;1782347;80;21098;-68
2022/10/17 03:51:42;;;;;;;14.70;10.05;;;;;;;2.43;100.00;101244.31;1781527;80;21034;-68
2022/10/17 03:54:10;;;;;;;18.05;10.53;;;;;;;2.40;100.00;101250.06;1772517;79;21387;-68
2022/10/17 03:56:36;;;;;;;17.17;9.73;;;;;;;2.36;100.00;101252.78;1785885;79;20974;-68
2022/10/17 03:59:04;;;;;;;14.47;9.90;;;;;;;2.35;100.00;101255.13;1771436;80;21051;-68
2022/10/17 04:01:32;;;;;;;18.48;10.32;;;;;;;2.35;100.00;101239.02;1757765;81;20997;-68
2022/10/17 04:03:59;;;;;;;15.53;9.75;;;;;;;2.32;100.00;101238.03;1750581;80;21071;-68
2022/10/17 04:06:28;;;;;;;15.83;10.53;;;;;;;2.32;100.00;101247.95;1768161;81;21062;-69
2022/10/17 04:08:56;;;;;;;14.98;10.03;;;;;;;2.24;100.00;101240.78;1768725;81;21565;-69
2022/10/17 04:11:39;;;;;;;16.87;10.25;;;;;;;2.18;100.00;101249.58;1760921;80;21015;-69
2022/10/17 04:14:06;;;;;;;16.12;10.55;;;;;;;2.13;100.00;101246.58;1751787;81;21071;-69
2022/10/17 04:16:33;;;;;;;17.15;9.63;;;;;;;2.10;100.00;101236.20;1766772;81;21012;-69
2022/10/17 04:19:02;;;;;;;15.40;10.40;;;;;;;2.13;100.00;101226.94;1741199;82;21467;-69
2022/10/17 04:21:30;;;;;;;16.65;9.75;;;;;;;2.10;100.00;101225.96;1756944;81;21498;-69
2022/10/17 04:24:00;;;;;;;14.38;9.78;;;;;;;2.08;100.00;101226.16;1756653;80;21035;-69
2022/10/17 04:26:35;;;;;;;16.17;10.40;;;;;;;2.03;100.00;101225.85;1750036;81;21040;-69
2022/10/17 04:29:02;;;;;;;16.00;10.15;;;;;;;1.97;100.00;101220.70;1735131;81;21095;-69
2022/10/17 04:31:28;;;;;;;14.23;9.90;;;;;;;1.93;100.00;101217.20;1733832;82;21026;-69
2022/10/17 04:33:57;;;;;;;17.80;10.40;;;;;;;1.94;100.00;101213.52;1778458;79;21073;-69
2022/10/17 04:36:23;;;;;;;16.55;10.20;;;;;;;1.98;100.00;101210.80;1759948;80;21031;-69
2022/10/17 04:38:50;;;;;;;15.50;9.95;;;;;;;2.01;100.00;101214.47;1757666;81;21550;-69
2022/10/17 04:41:18;;;;;;;18.82;10.75;;;;;;;1.99;100.00;101220.00;1757953;81;21049;-69
2022/10/17 04:43:46;;;;;;;19.32;10.75;;;;;;;1.96;100.00;101228.42;1760322;79;21077;-69
2022/10/17 04:46:13;;;;;;;19.87;11.18;;;;;;;1.97;100.00;101223.39;1772721;80;21023;-69
2022/10/17 04:48:40;;;;;;;15.70;10.45;;;;;;;2.04;100.00;101226.19;1759121;80;21062;-69
2022/10/17 04:51:13;;;;;;;17.12;9.80;;;;;;;2.12;100.00;101222.60;1761275;80;21341;-69
2022/10/17 04:53:42;;;;;;;14.83;9.68;;;;;;;2.14;100.00;101218.71;1784391;79;21592;-69
2022/10/17 04:56:16;;;;;;;16.20;11.10;;;;;;;2.11;100.00;101219.58;1739172;81;21043;-69
2022/10/17 04:58:44;;;;;;;14.38;9.55;;;;;;;2.11;100.00;101222.27;1769801;80;21074;-69
2022/10/17 05:01:17;;;;;;;15.53;9.83;;;;;;;2.20;100.00;101228.72;1784585;80;21046;-68
2022/10/17 05:03:45;;;;;;;20.37;10.63;;;;;;;2.29;100.00;101223.63;1771333;79;21015;-69
2022/10/17 05:06:22;;;;;;;19.65;10.32;;;;;;;2.34;100.00;101227.92;1768440;80;21481;-69
2022/10/17 05:08:50;;;;;;;;;;;;;;;2.37;100.00;101238.84;1770548;80;21627;-69
2022/10/17 05:11:23;;;;;;;18.02;10.95;;;;;;;2.42;100.00;101245.83;1781771;80;20106;-69
2022/10/17 05:13:51;;;;;;;16.60;10.72;;;;;;;2.39;100.00;101249.73;1754666;81;21012;-70
2022/10/17 05:16:18;;;;;;;15.23;10.50;;;;;;;2.50;100.00;101250.63;1787001;79;21025;-69
2022/10/17 05:18:49;;;;;;;21.35;10.80;;;;;;;2.65;100.00;101255.20;1788683;79;21054;-69
2022/10/17 05:21:15;;;;;;;14.43;9.83;;;;;;;2.77;100.00;101257.75;1769538;79;21081;-70
2022/10/17 05:23:44;;;;;;;16.07;9.90;;;;;;;2.83;100.00;101255.18;1773554;80;21054;-69
2022/10/17 05:26:11;;;;;;;13.93;10.00;;;;;;;2.84;100.00;101242.54;1767712;80;21098;-70
2022/10/17 05:28:39;;;;;;;17.35;10.43;;;;;;;2.86;100.00;101241.86;1761627;80;21126;-69
2022/10/17 05:31:07;;;;;;;17.32;9.73;;;;;;;2.96;100.00;101239.72;1759659;80;21067;-68
2022/10/17 05:33:35;;;;;;;16.57;10.08;;;;;;;3.07;100.00;101245.14;1772396;80;21149;-69
2022/10/17 05:36:02;;;;;;;16.35;10.15;;;;;;;3.15;100.00;101254.48;1770206;80;21006;-68
2022/10/17 05:38:29;;;;;;;15.38;9.88;;;;;;;3.19;100.00;101244.47;1769828;80;21075;-69
2022/10/17 05:40:59;;;;;;;14.50;9.60;;;;;;;3.27;100.00;101243.03;1764460;79;21644;-68
2022/10/17 05:43:25;;;;;;;14.75;9.05;;;;;;;3.41;100.00;101255.64;1795456;79;21053;-67
2022/10/17 05:45:52;;;;;;;16.85;9.20;;;;;;;3.65;100.00;101267.11;1769878;80;21065;-68
2022/10/17 05:48:20;;;;;;;13.80;8.98;;;;;;;3.89;100.00;101268.95;1769927;79;21687;-68
2022/10/17 05:50:47;;;;;;;14.07;9.63;;;;;;;4.13;100.00;101266.89;1779220;79;21085;-67
2022/10/17 05:53:16;;;;;;;14.07;10.05;;;;;;;4.36;100.00;101266.16;1783308;79;21560;-68
2022/10/17 05:55:57;;;;;;;15.65;9.48;;;;;;;4.61;100.00;101272.80;1757101;80;21022;-68
2022/10/17 05:58:24;;;;;;;17.10;9.68;;;;;;;4.90;100.00;101269.91;1781568;80;21139;-68
2022/10/17 06:00:58;;;;;;;13.95;8.83;;;;;;;5.21;100.00;101272.70;1803984;79;21518;-67
2022/10/17 06:03:26;;;;;;;16.42;8.98;;;;;;;5.46;100.00;101271.97;1770564;80;21688;-68
2022/10/17 06:05:53;;;;;;;14.68;9.33;;;;;;;5.67;100.00;101265.60;1767244;80;21039;-68
2022/10/17 06:08:20;;;;;;;15.23;9.33;;;;;;;5.85;100.00;101271.27;1782931;79;21030;-68
2022/10/17 06:10:48;;;;;;;13.90;9.93;;;;;;;6.02;100.00;101270.95;1767427;80;20991;-67
2022/10/17 06:13:18;;;;;;;16.35;9.73;;;;;;;6.19;100.00;101274.41;1777372;79;21628;-68
2022/10/17 06:15:47;;;;;;;15.28;9.48;;;;;;;6.36;100.00;101263.50;1772147;80;21064;-68
2022/10/17 06:18:16;;;;;;;15.13;10.03;;;;;;;6.61;100.00;101261.52;1759569;80;21047;-68
2022/10/17 06:20:44;;;;;;;14.53;10.25;;;;;;;6.83;100.00;101265.16;1755212;80;21010;-69
2022/10/17 06:23:11;;;;;;;13.75;9.53;;;;;;;7.13;100.00;101262.79;1769176;80;21577;-69
2022/10/17 06:25:39;;;;;;;14.73;9.00;;;;;;;7.45;100.00;101267.27;1761441;79;21034;-69
2022/10/17 06:28:05;;;;;;;;;;;;;;;7.69;100.00;101267.06;1773794;79;21376;-69
2022/10/17 06:30:33;;;;;;;14.25;9.00;;;;;;;7.91;100.00;101267.05;1786604;80;20123;-68
2022/10/17 06:33:00;;;;;;;;;;;;;;;8.09;100.00;101266.84;1783325;80;21118;-68
2022/10/17 06:35:26;;;;;;;10.53;8.18;;;;;;;8.36;100.00;101276.52;1775529;80;20165;-68
2022/10/17 06:37:52;;;;;;;;;;;;;;;8.49;100.00;101276.41;1784099;79;21130;-67
2022/10/17 06:40:20;;;;;;;15.32;8.90;;;;;;;8.72;100.00;101279.33;1785466;80;20169;-71
2022/10/17 06:42:48;;;;;;;14.47;9.33;;;;;;;8.89;100.00;101283.14;1711347;80;21019;-68
2022/10/17 06:45:25;;;;;;;13.03;7.50;;;;;;;9.17;100.00;101282.67;1768951;79;21841;-68
2022/10/17 06:47:56;;;;;;;11.10;7.78;;;;;;;9.46;100.00;101277.00;1759661;79;21683;-69
2022/10/17 06:50:43;;;;;;;12.98;8.63;;;;;;;9.73;100.00;101274.80;1787404;78;21081;-68
2022/10/17 06:53:12;;;;;;;10.70;7.97;;;;;;;9.92;100.00;101281.32;1773874;79;21097;-69
2022/10/17 06:55:44;;;;;;;11.85;7.83;;;;;;;10.06;100.00;101280.59;1699604;80;21114;-70
2022/10/17 06:58:17;;;;;;;14.95;8.50;;;;;;;10.19;100.00;101268.22;1787597;78;21081;-70
2022/10/17 07:00:46;;;;;;;11.08;7.28;;;;;;;10.38;100.00;101267.06;1787001;80;21861;-71
2022/10/17 07:03:12;;;;;;;11.25;7.78;;;;;;;10.60;100.00;101255.09;1767440;80;21113;-71
2022/10/17 07:05:39;;;;;;;;;;;;;;;10.75;100.00;101244.58;1776255;80;21380;-73
2022/10/17 07:08:06;;;;;;;10.98;7.37;;;;;;;10.87;100.00;101245.42;1777142;80;20137;-73
2022/10/17 07:10:37;;;;;;;12.40;8.30;;;;;;;10.88;100.00;101245.69;1787054;80;21045;-74
2022/10/17 07:13:04;;;;;;;13.88;6.72;;;;;;;11.04;100.00;101256.42;1780717;80;21074;-73
2022/10/17 07:15:32;;;;;;;11.65;7.50;;;;;;;11.23;100.00;101259.84;1780799;80;21027;-72
2022/10/17 07:17:59;;;;;;;12.35;7.12;;;;;;;11.36;100.00;101268.59;1779912;80;21055;-73
2022/10/17 07:20:26;;;;;;;9.78;6.67;;;;;;;11.51;100.00;101265.89;1772122;80;21061;-74
2022/10/17 07:22:53;;;;;;;13.93;7.85;;;;;;;11.61;100.00;101268.30;1788164;80;21117;-72
2022/10/17 07:25:19;;;;;;;9.68;6.62;;;;;;;11.77;100.00;101274.37;1794415;79;21580;-71
2022/10/17 07:27:51;;;;;;;12.53;7.25;;;;;;;12.02;100.00;101271.84;1778392;78;20990;-72
2022/10/17 07:30:19;;;;;;;12.45;6.80;;;;;;;12.27;100.00;101270.95;1775429;78;21092;-75
2022/10/17 07:32:55;;;;;;;9.18;5.85;;;;;;;12.51;100.00;101277.09;1760855;80;21110;-74
2022/10/17 07:35:21;;;;;;;;;;;;;;;12.72;100.00;101266.79;1782576;80;21085;-73
2022/10/17 07:37:47;;;;;;;10.75;6.17;;;;;;;12.89;100.00;101262.17;1774323;80;20644;-74
2022/10/17 07:40:16;;;;;;;9.18;6.17;;;;;;;12.96;100.00;101254.09;1780761;80;21608;-73
2022/10/17 07:42:43;;;;;;;9.45;6.20;;;;;;;13.16;100.00;101237.70;1776887;78;21013;-74
2022/10/17 07:45:10;;;;;;;8.50;6.00;;;;;;;13.32;100.00;101240.95;1785133;79;21655;-73
2022/10/17 07:47:36;;;;;;;11.05;6.05;;;;;;;13.49;100.00;101242.24;1775512;79;21628;-72
2022/10/17 07:50:05;;;;;;;14.25;7.90;;;;;;;13.74;100.00;101242.02;1795383;79;21471;-70
2022/10/17 07:52:32;;;;;;;12.33;7.85;;;;;;;14.00;100.00;101244.47;1778756;79;21837;-70
2022/10/17 07:54:59;;;;;;;14.05;7.80;;;;;;;14.26;100.00;101242.28;1799302;79;21041;-72
2022/10/17 07:57:26;;;;;;;14.28;8.90;;;;;;;14.42;100.00;101234.50;1791538;79;21021;-72
2022/10/17 07:59:53;;;;;;;13.62;7.92;;;;;;;14.53;100.00;101227.73;1784598;79;21894;-73
2022/10/17 08:02:24;;;;;;;12.82;7.80;;;;;;;14.64;100.00;101230.30;1801150;79;21017;-73
2022/10/17 08:04:51;;;;;;;9.63;6.85;;;;;;;14.76;100.00;101225.47;1802642;79;21053;-73
2022/10/17 08:07:18;;;;;;;11.95;6.80;;;;;;;14.82;100.00;101226.31;1790714;79;21315;-71
2022/10/17 08:09:45;;;;;;;9.20;6.15;;;;;;;14.83;100.00;101233.45;1790764;79;21104;-72
2022/10/17 08:12:13;;;;;;;10.95;5.90;;;;;;;14.88;100.00;101239.79;1787760;79;21029;-72
2022/10/17 08:14:42;;;;;;;9.70;5.37;;;;;;;14.95;100.00;101233.53;1798763;79;21136;-72
2022/10/17 08:17:08;;;;;;;8.60;6.12;;;;;;;15.00;100.00;101231.38;1782147;78;21038;-73
2022/10/17 08:19:39;;;;;;;10.95;5.70;;;;;;;15.11;100.00;101230.34;1757647;80;21079;-73
2022/10/17 08:22:06;;;;;;;9.78;5.78;;;;;;;15.29;100.00;101234.02;1784167;79;21081;-74
2022/10/17 08:24:33;;;;;;;9.78;5.95;;;;;;;15.50;100.00;101239.08;1747891;81;21080;-73
2022/10/17 08:27:02;;;;;;;10.15;5.30;;;;;;;15.59;100.00;101235.28;1782690;79;21046;-72
2022/10/17 08:29:31;;;;;;;11.43;7.40;;;;;;;15.67;100.00;101227.88;1798440;79;21074;-73
2022/10/17 08:31:57;;;;;;;12.20;7.87;;;;;;;15.85;100.00;101223.27;1718164;80;21054;-73
2022/10/17 08:34:24;;;;;;;13.18;6.83;;;;;;;16.05;100.00;101215.06;1795189;77;21580;-71
2022/10/17 08:36:50;;;;;;;8.28;5.60;;;;;;;16.17;98.65;101222.52;1800522;79;21464;-71
2022/10/17 08:39:17;;;;;;;10.45;5.37;;;;;;;16.25;97.46;101215.66;1801360;79;21116;-72
2022/10/17 08:42:35;;;;;;;10.93;4.80;;;;;;;16.35;94.46;101206.04;1808899;79;21049;-73
2022/10/17 08:45:26;;;;;;;8.60;5.08;;;;;;;16.34;92.11;101205.21;1774175;79;21031;-72
2022/10/17 08:47:58;;;;;;;10.32;5.72;;;;;;;16.21;89.77;101196.69;1766974;80;21043;-75
2022/10/17 08:50:38;;;;;;;10.25;4.72;;;;;;;16.17;90.54;101196.95;1766090;79;20980;-72
2022/10/17 08:53:42;;;;;;;8.98;4.67;;;;;;;16.21;90.32;101198.89;1774632;79;21068;-74
2022/10/17 08:56:19;;;;;;;10.43;4.83;;;;;;;16.28;90.17;101205.48;1770872;80;21011;-74
2022/10/17 08:58:45;;;;;;;7.37;4.20;;;;;;;16.40;89.14;101204.68;1765826;80;21679;-70
2022/10/17 09:01:34;;;;;;;9.20;4.65;;;;;;;16.52;90.66;101200.25;1787052;78;21552;-70
2022/10/17 09:04:38;;;;;;;6.50;4.12;;;;;;;16.64;88.00;101201.67;1778460;80;21054;-73
2022/10/17 09:07:25;;;;;;;6.25;4.15;;;;;;;16.70;85.49;101200.55;1775254;79;21006;-75
2022/10/17 09:10:26;;;;;;;7.28;3.92;;;;;;;16.80;85.99;101199.70;1782776;80;21081;-74
2022/10/17 09:13:20;;;;;;;6.95;4.28;;;;;;;16.88;85.85;101185.40;1746359;80;21109;-73
2022/10/17 09:15:56;;;;;;;8.20;4.08;;;;;;;17.05;84.33;101196.08;1807766;78;21027;-73
2022/10/17 09:18:36;;;;;;;8.98;5.00;;;;;;;17.12;81.61;101200.73;1783124;80;21432;-74
2022/10/17 09:21:24;;;;;;;9.83;4.10;;;;;;;17.07;80.86;101203.52;1789743;80;21411;-76
2022/10/17 09:23:54;;;;;;;8.20;3.92;;;;;;;17.10;80.64;101196.91;1785268;80;21074;-72
2022/10/17 09:26:21;;;;;;;9.10;4.50;;;;;;;17.12;80.88;101204.86;1782284;79;21089;-73
2022/10/17 09:28:57;;;;;;;6.00;3.98;;;;;;;17.19;82.19;101200.71;1759289;80;21057;-73
2022/10/17 09:31:27;;;;;;;8.00;4.50;;;;;;;17.32;81.20;101195.18;1773018;80;21038;-75
2022/10/17 09:33:59;;;;;;;6.85;4.08;;;;;;;17.36;79.46;101193.48;1763495;80;21696;-71
2022/10/17 09:36:33;;;;;;;7.30;3.90;;;;;;;17.42;80.52;101199.27;1793958;79;21007;-74
2022/10/17 09:39:15;;;;;;;7.33;4.10;;;;;;;17.56;80.50;101192.59;1795597;79;21065;-74
2022/10/17 09:41:49;;;;;;;7.00;3.62;;;;;;;17.63;78.52;101191.20;1800836;79;21031;-72
2022/10/17 09:44:23;;;;;;;12.10;4.20;;;;;;;17.64;78.21;101200.30;1785853;78;21678;-74
2022/10/17 09:47:16;;;;;;;6.15;3.90;;;;;;;17.62;77.57;101190.10;1772709;80;21023;-74
2022/10/17 09:49:45;;;;;;;6.15;3.67;;;;;;;17.63;77.11;101198.64;1766667;79;21097;-74
2022/10/17 09:52:20;;;;;;;8.48;3.90;;;;;;;17.49;75.98;101198.41;1806017;79;21823;-74
2022/10/17 09:54:50;;;;;;;8.93;3.52;;;;;;;17.38;76.77;101192.67;1797077;79;21045;-75
2022/10/17 09:57:19;;;;;;;10.48;5.17;;;;;;;17.36;78.17;101196.23;1796414;79;20974;-75
2022/10/17 09:59:57;;;;;;;10.13;5.00;;;;;;;17.27;76.16;101193.27;1812159;79;21666;-73
2022/10/17 10:02:25;;;;;;;6.80;4.03;;;;;;;17.07;74.44;101190.59;1785255;79;21505;-74
2022/10/17 10:05:10;;;;;;;8.33;4.00;;;;;;;16.86;74.88;101179.36;1805852;77;21087;-76
2022/10/17 10:07:37;;;;;;;6.37;3.75;;;;;;;16.71;75.13;101169.22;1802601;79;21057;-75
2022/10/17 10:10:08;;;;;;;9.00;5.78;;;;;;;16.56;75.12;101169.78;1799973;79;21061;-75
2022/10/17 10:12:38;;;;;;;16.77;9.50;;;;;;;16.47;77.07;101165.37;1797134;77;21273;-74
2022/10/17 10:15:34;;;;;;;11.18;6.42;;;;;;;16.40;77.51;101171.12;1804665;77;21092;-72
2022/10/17 10:18:00;;;;;;;10.08;4.62;;;;;;;16.36;77.46;101166.48;1784076;79;21097;-74
2022/10/17 10:20:35;;;;;;;10.78;5.35;;;;;;;16.26;77.24;101152.17;1805642;79;21580;-73
2022/10/17 10:23:20;;;;;;;9.65;6.45;;;;;;;16.22;76.78;101168.13;1795092;77;22377;-70
2022/10/17 10:25:56;;;;;;;9.80;5.22;;;;;;;16.16;76.90;101176.90;1791937;79;21620;-71
2022/10/17 10:28:27;;;;;;;8.70;4.62;;;;;;;16.20;78.29;101188.16;1795790;79;21840;-71
2022/10/17 10:30:56;;;;;;;8.10;4.50;;;;;;;16.34;79.75;101190.64;1792577;79;22319;-69
2022/10/17 10:33:26;;;;;;;5.95;3.50;;;;;;;16.50;80.11;101181.86;1799842;79;21097;-73
2022/10/17 10:35:57;;;;;;;6.25;3.20;;;;;;;16.65;79.58;101184.62;1801998;79;21056;-70
2022/10/17 10:38:23;;;;;;;6.62;3.42;;;;;;;16.75;78.62;101184.61;1804742;79;21101;-71
2022/10/17 10:40:51;;;;;;;;;;;;;;;16.79;75.05;101187.88;1801624;79;21072;-70
2022/10/17 10:43:47;;;;;;;6.50;3.22;;;;;;;16.75;75.42;101184.61;1793350;79;20139;-68
2022/10/17 10:46:26;;;;;;;7.28;3.20;;;;;;;16.68;75.40;101192.31;1776250;79;21001;-73
2022/10/17 10:49:00;;;;;;;6.58;3.58;;;;;;;16.71;75.73;101180.77;1790602;79;21011;-70
2022/10/17 10:51:43;;;;;;;9.55;3.87;;;;;;;16.83;77.32;101184.02;1797171;79;20987;-71
2022/10/17 10:54:21;;;;;;;8.88;3.67;;;;;;;16.93;77.22;101190.32;1790514;79;21041;-72
2022/10/17 11:00:11;;;;;;;7.00;2.95;;;;;;;17.01;73.78;101194.98;1849543;76;22834;-69
2022/10/17 11:02:46;;;;;;;12.23;3.80;;;;;;;16.96;75.04;101179.34;1812921;77;21065;-71
2022/10/17 11:05:24;;;;;;;5.97;3.30;;;;;;;17.05;74.78;101172.14;1811861;77;21048;-71
2022/10/17 11:07:59;;;;;;;5.92;3.50;;;;;;;17.11;73.67;101163.34;1821189;77;21100;-70
2022/10/17 11:10:31;;;;;;;15.40;8.33;;;;;;;17.15;72.55;101152.02;1831057;77;21499;-65
2022/10/17 11:13:05;;;;;;;17.87;9.98;;;;;;;17.17;70.89;101153.95;1829527;77;21678;-70
2022/10/17 11:15:41;;;;;;;9.05;3.90;;;;;;;17.12;67.58;101151.20;1825067;77;21030;-71
2022/10/17 11:18:34;;;;;;;6.00;3.55;;;;;;;17.03;69.20;101146.86;1776369;78;21156;-69
2022/10/17 11:21:07;;;;;;;10.05;3.65;;;;;;;16.99;68.74;101152.64;1793906;78;21014;-70
2022/10/17 11:23:47;;;;;;;6.60;3.12;;;;;;;17.02;69.91;101143.82;1790417;77;21073;-68
2022/10/17 11:26:25;;;;;;;6.80;3.05;;;;;;;17.06;69.86;101148.21;1819207;77;21049;-70
2022/10/17 11:28:55;;;;;;;7.83;3.10;;;;;;;17.08;68.84;101148.74;1827105;77;21119;-69
2022/10/17 11:31:24;;;;;;;7.37;3.65;;;;;;;17.17;69.62;101152.03;1828163;77;21045;-69
2022/10/17 11:34:19;;;;;;;5.78;3.33;;;;;;;17.29;68.79;101148.38;1824278;77;21053;-69
2022/10/17 11:36:49;;;;;;;6.97;3.67;;;;;;;17.38;68.51;101143.13;1829453;77;21473;-68
2022/10/17 11:39:29;;;;;;;10.60;3.90;;;;;;;17.43;67.70;101146.41;1826958;77;21021;-68
2022/10/17 11:42:13;;;;;;;8.60;4.58;;;;;;;17.51;67.18;101126.52;1829021;77;21588;-70
2022/10/17 11:44:40;;;;;;;7.97;3.87;;;;;;;17.61;66.89;101127.88;1794823;77;21137;-68